Aloha, Washington
Current Conditions -  °F | °C
As of 6:53 PM on Wednesday 22 Oct 2014 (Local Time) from KHQM Reporting Station
Overcast Overcast  
Wind Chill: 14°   Ceiling: 4900
Heat Index: 14°   Visibility: 9mi
Dew Point: 13°   Wind: 18mph
Humidity: 93%   Direction: 180°S
Pressure: 29.56"   Gusts: NA
Location:  47.1899°N, 124.112°W
Report Text: KHQM 230153Z AUTO 18016KT 9SM FEW014 BKN049 OVC075 14/13 A2956 RMK AO2 PK WND 18031/0106 RAE53 SLP015 P0016 T01390128
Loading
Personal Weather Stations






























Interactive Weather Map
Tropical Storm Tracking
New forecast layout! Learn more

10-Day Weather Forecast

Advertisements
Track Severe Weather on mobile